sensor_id;sensor_type;location;lat;lon;timestamp;temperature;humidity
37998;DHT22;24079;51.824;4.682;2022-07-06T19:56:04;19.80;99.90
37998;DHT22;24079;51.824;4.682;2022-07-06T19:58:29;19.80;99.90
37998;DHT22;24079;51.824;4.682;2022-07-06T20:00:55;19.80;99.90
37998;DHT22;24079;51.824;4.682;2022-07-06T20:03:22;19.80;99.90
37998;DHT22;24079;51.824;4.682;2022-07-06T20:05:48;19.80;99.90
37998;DHT22;24079;51.824;4.682;2022-07-06T20:08:15;19.70;99.90
37998;DHT22;24079;51.824;4.682;2022-07-06T20:10:41;19.50;99.90
37998;DHT22;24079;51.824;4.682;2022-07-06T20:13:07;19.50;99.90
37998;DHT22;24079;51.824;4.682;2022-07-06T20:15:33;19.40;99.90
37998;DHT22;24079;51.824;4.682;2022-07-06T20:17:59;19.40;99.90
37998;DHT22;24079;51.824;4.682;2022-07-06T20:20:26;19.40;99.90
37998;DHT22;24079;51.824;4.682;2022-07-06T20:22:51;19.50;99.90
37998;DHT22;24079;51.824;4.682;2022-07-06T20:25:17;19.50;99.90
37998;DHT22;24079;51.824;4.682;2022-07-06T20:27:43;19.50;99.90
37998;DHT22;24079;51.824;4.682;2022-07-06T20:30:10;19.40;99.90
37998;DHT22;24079;51.824;4.682;2022-07-06T20:32:36;19.40;99.90
37998;DHT22;24079;51.824;4.682;2022-07-06T20:35:03;19.50;99.90
37998;DHT22;24079;51.824;4.682;2022-07-06T20:37:28;19.50;99.90
37998;DHT22;24079;51.824;4.682;2022-07-06T20:39:54;19.40;99.90
37998;DHT22;24079;51.824;4.682;2022-07-06T20:42:19;19.30;99.90
37998;DHT22;24079;51.824;4.682;2022-07-06T20:44:45;19.30;99.90
37998;DHT22;24079;51.824;4.682;2022-07-06T20:47:12;19.20;99.90
37998;DHT22;24079;51.824;4.682;2022-07-06T20:49:38;19.30;99.90
37998;DHT22;24079;51.824;4.682;2022-07-06T20:52:03;19.20;99.90
37998;DHT22;24079;51.824;4.682;2022-07-06T20:54:29;19.20;99.90
37998;DHT22;24079;51.824;4.682;2022-07-06T20:56:55;19.20;99.90
37998;DHT22;24079;51.824;4.682;2022-07-06T20:59:21;19.20;99.90
37998;DHT22;24079;51.824;4.682;2022-07-06T21:01:46;19.30;99.90
37998;DHT22;24079;51.824;4.682;2022-07-06T21:04:12;19.20;99.90
37998;DHT22;24079;51.824;4.682;2022-07-06T21:06:38;19.30;99.90
37998;DHT22;24079;51.824;4.682;2022-07-06T21:09:04;19.20;99.90
37998;DHT22;24079;51.824;4.682;2022-07-06T21:11:29;19.20;99.90
37998;DHT22;24079;51.824;4.682;2022-07-06T21:13:55;19.20;99.90
37998;DHT22;24079;51.824;4.682;2022-07-06T21:16:21;19.20;99.90
37998;DHT22;24079;51.824;4.682;2022-07-06T21:18:46;19.20;99.90
37998;DHT22;24079;51.824;4.682;2022-07-06T21:21:12;19.20;99.90
37998;DHT22;24079;51.824;4.682;2022-07-06T21:23:38;19.20;99.90
37998;DHT22;24079;51.824;4.682;2022-07-06T21:26:05;19.20;99.90
37998;DHT22;24079;51.824;4.682;2022-07-06T21:28:31;19.20;99.90
37998;DHT22;24079;51.824;4.682;2022-07-06T21:30:56;19.20;99.90
37998;DHT22;24079;51.824;4.682;2022-07-06T21:33:22;19.10;99.90
37998;DHT22;24079;51.824;4.682;2022-07-06T21:35:49;19.20;99.90
37998;DHT22;24079;51.824;4.682;2022-07-06T21:38:15;19.20;99.90
37998;DHT22;24079;51.824;4.682;2022-07-06T21:40:40;19.20;99.90
37998;DHT22;24079;51.824;4.682;2022-07-06T21:43:06;19.20;99.90
37998;DHT22;24079;51.824;4.682;2022-07-06T21:45:32;19.20;99.90
37998;DHT22;24079;51.824;4.682;2022-07-06T21:47:58;19.10;99.90
37998;DHT22;24079;51.824;4.682;2022-07-06T21:50:23;19.20;99.90
37998;DHT22;24079;51.824;4.682;2022-07-06T21:52:49;19.10;99.90
37998;DHT22;24079;51.824;4.682;2022-07-06T21:55:15;19.20;99.90
37998;DHT22;24079;51.824;4.682;2022-07-06T21:57:40;19.20;99.90
37998;DHT22;24079;51.824;4.682;2022-07-06T22:00:07;19.30;99.90
37998;DHT22;24079;51.824;4.682;2022-07-06T22:02:33;19.30;99.90
37998;DHT22;24079;51.824;4.682;2022-07-06T22:04:59;19.30;99.90
37998;DHT22;24079;51.824;4.682;2022-07-06T22:07:25;19.30;99.90
37998;DHT22;24079;51.824;4.682;2022-07-06T22:09:50;19.20;99.90
37998;DHT22;24079;51.824;4.682;2022-07-06T22:12:16;19.20;99.90
37998;DHT22;24079;51.824;4.682;2022-07-06T22:14:42;19.30;99.90
37998;DHT22;24079;51.824;4.682;2022-07-06T22:17:07;19.20;99.90
37998;DHT22;24079;51.824;4.682;2022-07-06T22:19:33;19.30;99.90
37998;DHT22;24079;51.824;4.682;2022-07-06T22:21:59;19.40;99.90
37998;DHT22;24079;51.824;4.682;2022-07-06T22:24:24;19.50;99.90
37998;DHT22;24079;51.824;4.682;2022-07-06T22:26:50;19.40;99.90
37998;DHT22;24079;51.824;4.682;2022-07-06T22:29:16;19.50;99.90
37998;DHT22;24079;51.824;4.682;2022-07-06T22:31:41;19.50;99.90
37998;DHT22;24079;51.824;4.682;2022-07-06T22:34:07;19.40;99.90
37998;DHT22;24079;51.824;4.682;2022-07-06T22:36:33;19.50;99.90
37998;DHT22;24079;51.824;4.682;2022-07-06T22:38:59;19.50;99.90
37998;DHT22;24079;51.824;4.682;2022-07-06T22:41:25;19.50;99.90
37998;DHT22;24079;51.824;4.682;2022-07-06T22:43:55;19.40;99.90
37998;DHT22;24079;51.824;4.682;2022-07-06T22:46:22;19.50;99.90
37998;DHT22;24079;51.824;4.682;2022-07-06T22:48:47;19.50;99.90
37998;DHT22;24079;51.824;4.682;2022-07-06T22:51:13;19.50;99.90
37998;DHT22;24079;51.824;4.682;2022-07-06T22:53:39;19.50;99.90
37998;DHT22;24079;51.824;4.682;2022-07-06T22:56:06;19.50;99.90
37998;DHT22;24079;51.824;4.682;2022-07-06T22:58:36;19.40;99.90
37998;DHT22;24079;51.824;4.682;2022-07-06T23:01:06;19.40;99.90
37998;DHT22;24079;51.824;4.682;2022-07-06T23:03:33;19.40;99.90
37998;DHT22;24079;51.824;4.682;2022-07-06T23:05:59;19.40;99.90
37998;DHT22;24079;51.824;4.682;2022-07-06T23:08:25;19.40;99.90
37998;DHT22;24079;51.824;4.682;2022-07-06T23:10:51;19.40;99.90
37998;DHT22;24079;51.824;4.682;2022-07-06T23:13:17;19.40;99.90
37998;DHT22;24079;51.824;4.682;2022-07-06T23:15:43;19.50;99.90
37998;DHT22;24079;51.824;4.682;2022-07-06T23:18:08;19.40;99.90
37998;DHT22;24079;51.824;4.682;2022-07-06T23:20:34;19.40;99.90
37998;DHT22;24079;51.824;4.682;2022-07-06T23:23:00;19.50;99.90
37998;DHT22;24079;51.824;4.682;2022-07-06T23:25:26;19.50;99.90
37998;DHT22;24079;51.824;4.682;2022-07-06T23:27:52;19.50;99.90
37998;DHT22;24079;51.824;4.682;2022-07-06T23:30:17;19.50;99.90
37998;DHT22;24079;51.824;4.682;2022-07-06T23:32:43;19.60;99.90
37998;DHT22;24079;51.824;4.682;2022-07-06T23:35:10;19.60;99.90
37998;DHT22;24079;51.824;4.682;2022-07-06T23:37:36;19.50;99.90
37998;DHT22;24079;51.824;4.682;2022-07-06T23:40:03;19.50;99.90
37998;DHT22;24079;51.824;4.682;2022-07-06T23:42:30;19.50;99.90
37998;DHT22;24079;51.824;4.682;2022-07-06T23:44:56;19.50;99.90
37998;DHT22;24079;51.824;4.682;2022-07-06T23:47:21;19.50;99.90
37998;DHT22;24079;51.824;4.682;2022-07-06T23:49:47;19.50;99.90
37998;DHT22;24079;51.824;4.682;2022-07-06T23:52:13;19.60;99.90
37998;DHT22;24079;51.824;4.682;2022-07-06T23:54:39;19.60;99.90
37998;DHT22;24079;51.824;4.682;2022-07-06T23:57:04;19.70;99.90
37998;DHT22;24079;51.824;4.682;2022-07-06T23:59:30;19.70;99.90
